createdAt,value
2023-11-07T00:01:28.929Z,9.50
2023-11-07T00:03:56.142Z,9.50
2023-11-07T00:06:23.832Z,9.60
2023-11-07T00:08:52.504Z,9.60
2023-11-07T00:11:20.151Z,9.60
2023-11-07T00:13:49.531Z,9.60
2023-11-07T00:16:16.671Z,9.60
2023-11-07T00:18:43.917Z,9.60
2023-11-07T00:21:10.975Z,9.60
2023-11-07T00:23:38.891Z,9.60
2023-11-07T00:26:06.256Z,9.60
2023-11-07T00:28:33.175Z,9.60
2023-11-07T00:31:00.085Z,9.60
2023-11-07T00:33:27.001Z,9.60
2023-11-07T00:35:54.042Z,9.60
2023-11-07T00:38:20.975Z,9.60
2023-11-07T00:40:48.839Z,9.50
2023-11-07T00:43:15.764Z,9.50
2023-11-07T00:45:42.731Z,9.50
2023-11-07T00:48:09.795Z,9.50
2023-11-07T00:50:36.862Z,9.40
2023-11-07T00:53:04.883Z,9.40
2023-11-07T00:55:31.941Z,9.40
2023-11-07T00:57:58.951Z,9.40
2023-11-07T01:03:11.155Z,9.40
2023-11-07T01:05:39.556Z,9.40
2023-11-07T01:08:06.405Z,9.40
2023-11-07T01:10:34.169Z,9.40
2023-11-07T01:13:01.060Z,9.40
2023-11-07T01:15:27.924Z,9.40
2023-11-07T01:17:54.836Z,9.40
2023-11-07T01:20:23.471Z,9.40
2023-11-07T01:22:51.370Z,9.40
2023-11-07T01:25:18.357Z,9.30
2023-11-07T01:27:45.156Z,9.30
2023-11-07T01:30:13.014Z,9.30
2023-11-07T01:32:42.419Z,9.30
2023-11-07T01:35:10.733Z,9.30
2023-11-07T01:37:37.852Z,9.30
2023-11-07T01:40:05.451Z,9.30
2023-11-07T01:42:32.303Z,9.30
2023-11-07T01:45:00.968Z,9.30
2023-11-07T01:50:10.975Z,9.30
2023-11-07T01:52:39.127Z,9.20
2023-11-07T01:55:13.161Z,9.20
2023-11-07T01:57:44.511Z,9.30
2023-11-07T02:00:13.752Z,9.20
2023-11-07T02:02:42.176Z,9.20
2023-11-07T02:05:12.845Z,9.20
2023-11-07T02:07:40.593Z,9.20
2023-11-07T02:10:10.365Z,9.30
2023-11-07T02:12:37.606Z,9.20
2023-11-07T02:15:23.873Z,9.20
2023-11-07T02:17:51.711Z,9.20
2023-11-07T02:20:18.924Z,9.20
2023-11-07T02:22:50.326Z,9.20
2023-11-07T02:25:18.151Z,9.20
2023-11-07T02:27:45.097Z,9.20
2023-11-07T02:30:13.679Z,9.20
2023-11-07T02:32:42.089Z,9.20
2023-11-07T02:35:12.233Z,9.10
2023-11-07T02:37:39.740Z,9.10
2023-11-07T02:40:11.865Z,9.20
2023-11-07T02:42:39.253Z,9.20
2023-11-07T02:45:07.161Z,9.10
2023-11-07T02:47:38.103Z,9.20
2023-11-07T02:50:09.171Z,9.10
2023-11-07T02:52:37.665Z,9.10
2023-11-07T02:55:05.046Z,9.10
2023-11-07T02:57:31.908Z,9.10
2023-11-07T02:59:58.858Z,9.10
2023-11-07T03:02:25.754Z,9.00
2023-11-07T03:04:55.442Z,9.00
2023-11-07T03:07:22.960Z,9.00
2023-11-07T03:09:49.891Z,8.90
2023-11-07T03:12:17.610Z,8.90
2023-11-07T03:14:44.860Z,8.90
2023-11-07T03:17:11.760Z,8.80
2023-11-07T03:19:38.573Z,8.90
2023-11-07T03:22:05.893Z,8.90
2023-11-07T03:24:32.887Z,8.80
2023-11-07T03:27:00.218Z,8.80
2023-11-07T03:29:27.133Z,8.80
2023-11-07T03:31:54.983Z,8.80
2023-11-07T03:34:22.502Z,8.80
2023-11-07T03:36:49.534Z,8.80
2023-11-07T03:39:16.920Z,8.90
2023-11-07T03:41:45.922Z,8.90
2023-11-07T03:44:12.946Z,8.90
2023-11-07T03:46:39.803Z,8.90
2023-11-07T03:49:13.119Z,8.90
2023-11-07T03:51:46.095Z,8.90
2023-11-07T03:54:12.926Z,8.90
2023-11-07T03:56:39.919Z,8.90
2023-11-07T03:59:06.675Z,8.90
2023-11-07T04:01:40.595Z,8.80
2023-11-07T04:04:07.613Z,8.80
2023-11-07T04:06:34.908Z,8.80
2023-11-07T04:09:02.411Z,8.70
2023-11-07T04:11:29.362Z,8.70
2023-11-07T04:13:57.672Z,8.70
2023-11-07T04:16:24.483Z,8.60
2023-11-07T04:18:52.836Z,8.60
2023-11-07T04:21:19.761Z,8.60
2023-11-07T04:23:46.549Z,8.60
2023-11-07T04:26:14.031Z,8.60
2023-11-07T04:28:40.783Z,8.60
2023-11-07T04:31:08.931Z,8.50
2023-11-07T04:33:37.082Z,8.50
2023-11-07T04:36:04.156Z,8.50
2023-11-07T04:38:31.632Z,8.50
2023-11-07T04:40:58.861Z,8.50
2023-11-07T04:43:27.268Z,8.50
2023-11-07T04:45:57.436Z,8.50
2023-11-07T04:48:24.390Z,8.50
2023-11-07T04:50:51.217Z,8.50
2023-11-07T04:53:18.209Z,8.50
2023-11-07T04:55:45.215Z,8.50
2023-11-07T04:58:15.437Z,8.50
2023-11-07T05:00:42.330Z,8.50
2023-11-07T05:03:10.425Z,8.60
2023-11-07T05:05:37.309Z,8.60
2023-11-07T05:08:04.378Z,8.60
2023-11-07T05:10:31.105Z,8.60
2023-11-07T05:12:59.413Z,8.60
2023-11-07T05:15:26.492Z,8.60
2023-11-07T05:17:54.704Z,8.60
2023-11-07T05:20:21.584Z,8.60
2023-11-07T05:22:58.011Z,8.60
2023-11-07T05:25:26.599Z,8.60
2023-11-07T05:27:54.574Z,8.60
2023-11-07T05:30:26.844Z,8.60
2023-11-07T05:32:53.906Z,8.60
2023-11-07T05:35:22.550Z,8.50
2023-11-07T05:37:49.766Z,8.50
2023-11-07T05:40:18.263Z,8.50
2023-11-07T05:42:47.820Z,8.50
2023-11-07T05:45:14.977Z,8.40
2023-11-07T05:47:45.727Z,8.40
2023-11-07T05:50:14.034Z,8.30
2023-11-07T05:52:41.299Z,8.30
2023-11-07T05:55:09.635Z,8.20
2023-11-07T05:57:37.180Z,8.20
2023-11-07T06:00:12.123Z,8.20
2023-11-07T06:02:40.182Z,8.20
2023-11-07T06:05:08.044Z,8.20
2023-11-07T06:07:35.719Z,8.10
2023-11-07T06:10:04.275Z,8.10
2023-11-07T06:12:31.118Z,8.10
2023-11-07T06:15:00.780Z,8.00
2023-11-07T06:17:27.740Z,8.00
2023-11-07T06:19:55.188Z,8.00
2023-11-07T06:22:25.497Z,8.00
2023-11-07T06:24:52.632Z,7.90
2023-11-07T06:27:28.578Z,7.90
2023-11-07T06:29:59.816Z,7.90
2023-11-07T06:32:27.405Z,7.90
2023-11-07T06:34:54.352Z,7.90
2023-11-07T06:37:24.439Z,7.90
2023-11-07T06:39:52.891Z,7.90
2023-11-07T06:42:20.070Z,7.80
2023-11-07T06:44:46.873Z,7.80
2023-11-07T06:47:13.733Z,7.80
2023-11-07T06:49:40.677Z,7.80
2023-11-07T06:52:08.916Z,7.80
2023-11-07T06:54:35.748Z,7.80
2023-11-07T06:57:02.890Z,7.80
2023-11-07T06:59:29.784Z,7.80
2023-11-07T07:01:56.707Z,7.80
2023-11-07T07:04:23.815Z,7.80
2023-11-07T07:06:50.650Z,7.80
2023-11-07T07:09:22.504Z,7.80
2023-11-07T07:11:52.600Z,7.80
2023-11-07T07:14:19.823Z,7.80
2023-11-07T07:16:47.905Z,7.80
2023-11-07T07:19:26.406Z,7.90
2023-11-07T07:21:57.102Z,7.90
2023-11-07T07:24:34.855Z,7.90
2023-11-07T07:27:07.918Z,8.00
2023-11-07T07:29:34.666Z,7.90
2023-11-07T07:32:04.641Z,8.00
2023-11-07T07:34:33.576Z,8.00
2023-11-07T07:37:00.486Z,7.90
2023-11-07T07:39:31.822Z,8.00
2023-11-07T07:42:10.602Z,8.00
2023-11-07T07:44:45.710Z,8.00
2023-11-07T07:47:13.246Z,8.00
2023-11-07T07:49:41.691Z,8.00
2023-11-07T07:52:10.893Z,8.00
2023-11-07T07:55:00.388Z,8.10
2023-11-07T07:57:25.553Z,8.10
2023-11-07T07:59:52.459Z,8.10
2023-11-07T08:02:22.517Z,8.10
2023-11-07T08:04:49.324Z,8.20
2023-11-07T08:07:18.149Z,8.20
2023-11-07T08:09:45.589Z,8.30
2023-11-07T08:12:14.182Z,8.30
2023-11-07T08:14:42.474Z,8.30
2023-11-07T08:17:10.878Z,8.30
2023-11-07T08:19:37.806Z,8.40
2023-11-07T08:22:08.424Z,8.40
2023-11-07T08:24:35.570Z,8.40
2023-11-07T08:27:02.778Z,8.40
2023-11-07T08:29:29.699Z,8.40
2023-11-07T08:31:56.558Z,8.50
2023-11-07T08:34:24.263Z,8.50
2023-11-07T08:37:00.294Z,8.50
2023-11-07T08:39:35.141Z,8.50
2023-11-07T08:42:05.716Z,8.60
2023-11-07T08:44:32.625Z,8.60
2023-11-07T08:46:59.480Z,8.60
2023-11-07T08:49:26.454Z,8.70
2023-11-07T08:51:53.736Z,8.70
2023-11-07T08:54:20.705Z,8.70
2023-11-07T08:56:50.656Z,8.80
2023-11-07T08:59:20.432Z,8.80
2023-11-07T09:01:52.606Z,8.80
2023-11-07T09:04:19.448Z,8.80
2023-11-07T09:06:46.329Z,8.90
2023-11-07T09:09:16.607Z,8.90
2023-11-07T09:11:44.826Z,9.00
2023-11-07T09:16:48.169Z,9.10
2023-11-07T09:19:15.070Z,9.60
2023-11-07T09:21:44.128Z,10.30
2023-11-07T09:24:11.023Z,11.00
2023-11-07T09:26:37.880Z,11.70
2023-11-07T09:29:05.725Z,12.10
2023-11-07T09:31:32.449Z,12.50
2023-11-07T09:34:00.548Z,13.00
2023-11-07T09:36:28.482Z,13.40
2023-11-07T09:38:57.202Z,13.80
2023-11-07T09:41:23.957Z,14.20
2023-11-07T09:43:52.262Z,14.50
2023-11-07T09:46:24.267Z,14.60
2023-11-07T09:48:52.587Z,14.60
2023-11-07T09:51:22.462Z,14.80
2023-11-07T09:53:52.734Z,15.20
2023-11-07T09:56:24.219Z,15.30
2023-11-07T09:58:55.001Z,15.40
2023-11-07T10:01:23.442Z,15.70
2023-11-07T10:03:52.181Z,16.00
2023-11-07T10:06:19.418Z,16.20
2023-11-07T10:08:46.293Z,16.30
2023-11-07T10:11:15.146Z,16.40
2023-11-07T10:14:01.580Z,16.60
2023-11-07T10:16:39.091Z,16.80
2023-11-07T10:19:06.793Z,16.90
2023-11-07T10:21:34.272Z,16.90
2023-11-07T10:24:01.738Z,16.90
2023-11-07T10:26:30.421Z,16.90
2023-11-07T10:29:17.971Z,17.10
2023-11-07T10:32:04.268Z,17.40
2023-11-07T10:34:34.337Z,17.70
2023-11-07T10:37:01.256Z,17.90
2023-11-07T10:39:28.699Z,18.10
2023-11-07T10:41:59.600Z,18.20
2023-11-07T10:44:31.046Z,18.30
2023-11-07T10:47:01.914Z,18.50
2023-11-07T10:49:32.215Z,18.40
2023-11-07T10:52:04.060Z,18.30
2023-11-07T10:54:31.990Z,18.40
2023-11-07T10:57:07.031Z,18.50
2023-11-07T10:59:35.331Z,18.60
2023-11-07T11:02:03.641Z,18.70
2023-11-07T11:04:38.298Z,18.70
2023-11-07T11:07:09.125Z,18.70
2023-11-07T11:09:36.607Z,19.10
2023-11-07T11:12:05.315Z,19.40
2023-11-07T11:14:32.223Z,19.50
2023-11-07T11:17:20.442Z,19.50
2023-11-07T11:20:24.051Z,19.60
2023-11-07T11:23:05.149Z,19.70
2023-11-07T11:25:45.569Z,19.60
2023-11-07T11:28:12.392Z,19.60
2023-11-07T11:30:40.429Z,19.10
2023-11-07T11:33:12.467Z,18.50
2023-11-07T11:35:42.315Z,18.40
2023-11-07T11:38:22.657Z,18.70
2023-11-07T11:40:57.827Z,19.00
2023-11-07T11:43:27.193Z,19.10
2023-11-07T11:45:56.832Z,19.20
2023-11-07T11:48:56.471Z,19.30
2023-11-07T11:51:43.380Z,19.50
2023-11-07T11:54:11.737Z,19.80
2023-11-07T11:56:50.699Z,19.90
2023-11-07T11:59:20.603Z,19.90
2023-11-07T12:01:51.361Z,19.90
2023-11-07T12:04:37.504Z,19.80
2023-11-07T12:07:08.174Z,19.70
2023-11-07T12:09:35.182Z,19.30
2023-11-07T12:12:03.273Z,18.90
2023-11-07T12:14:30.804Z,19.00
2023-11-07T12:16:58.702Z,19.00
2023-11-07T12:19:26.495Z,18.80
2023-11-07T12:21:54.439Z,18.60
2023-11-07T12:24:21.507Z,18.20
2023-11-07T12:26:48.948Z,17.70
2023-11-07T12:29:29.472Z,17.20
2023-11-07T12:31:56.390Z,16.50
2023-11-07T12:34:50.128Z,16.00
2023-11-07T12:37:21.491Z,15.70
2023-11-07T12:39:50.073Z,15.50
2023-11-07T12:42:17.252Z,15.50
2023-11-07T12:44:50.438Z,15.80
2023-11-07T12:47:17.376Z,15.80
2023-11-07T12:49:45.068Z,15.80
2023-11-07T12:52:13.064Z,16.40
2023-11-07T12:54:41.556Z,16.90
2023-11-07T12:57:08.522Z,17.50
2023-11-07T12:59:36.026Z,17.90
2023-11-07T13:02:04.666Z,18.40
2023-11-07T13:07:06.819Z,18.90
2023-11-07T13:09:36.715Z,18.90
2023-11-07T13:12:11.200Z,18.80
2023-11-07T13:14:41.340Z,18.80
2023-11-07T13:17:09.608Z,18.90
2023-11-07T13:19:37.507Z,18.90
2023-11-07T13:22:05.249Z,18.90
2023-11-07T13:24:32.710Z,18.60
2023-11-07T13:27:00.255Z,18.50
2023-11-07T13:29:28.353Z,18.30
2023-11-07T13:31:55.965Z,17.90
2023-11-07T13:34:22.931Z,17.70
2023-11-07T13:36:49.902Z,17.50
2023-11-07T13:39:24.051Z,17.30
2023-11-07T13:41:51.714Z,17.00
2023-11-07T13:44:18.684Z,16.70
2023-11-07T13:46:45.503Z,16.40
2023-11-07T13:49:12.468Z,16.00
2023-11-07T13:51:39.724Z,15.70
2023-11-07T13:54:09.458Z,15.40
2023-11-07T13:56:36.832Z,15.10
2023-11-07T13:59:07.111Z,14.90
2023-11-07T14:01:37.945Z,14.80
2023-11-07T14:04:10.618Z,14.70
2023-11-07T14:06:37.675Z,14.60
2023-11-07T14:09:05.996Z,14.60
2023-11-07T14:11:34.663Z,14.60
2023-11-07T14:14:01.527Z,14.50
2023-11-07T14:16:28.397Z,14.50
2023-11-07T14:18:55.643Z,14.50
2023-11-07T14:21:22.808Z,14.40
2023-11-07T14:23:49.816Z,14.20
2023-11-07T14:26:17.685Z,14.10
2023-11-07T14:28:55.102Z,14.00
2023-11-07T14:31:30.382Z,13.80
2023-11-07T14:33:59.625Z,13.70
2023-11-07T14:36:30.888Z,13.50
2023-11-07T14:38:58.159Z,13.50
2023-11-07T14:41:25.069Z,13.40
2023-11-07T14:43:51.885Z,13.30
2023-11-07T14:46:20.718Z,13.30
2023-11-07T14:48:47.780Z,13.30
2023-11-07T14:51:16.313Z,13.20
2023-11-07T14:53:43.124Z,13.20
2023-11-07T14:56:12.144Z,13.20
2023-11-07T14:58:39.445Z,13.20
2023-11-07T15:01:07.613Z,13.10
2023-11-07T15:03:34.672Z,13.10
2023-11-07T15:06:03.831Z,13.10
2023-11-07T15:08:31.431Z,13.00
2023-11-07T15:10:58.710Z,13.00
2023-11-07T15:13:26.150Z,12.90
2023-11-07T15:15:53.291Z,12.80
2023-11-07T15:18:24.568Z,12.70
2023-11-07T15:20:52.236Z,12.60
2023-11-07T15:23:19.205Z,12.50
2023-11-07T15:25:46.065Z,12.50
2023-11-07T15:28:12.915Z,12.40
2023-11-07T15:30:39.696Z,12.30
2023-11-07T15:33:08.188Z,12.30
2023-11-07T15:35:38.265Z,12.30
2023-11-07T15:38:09.155Z,12.20
2023-11-07T15:40:37.182Z,12.10
2023-11-07T15:43:06.069Z,12.10
2023-11-07T15:45:33.875Z,12.00
2023-11-07T15:48:01.364Z,11.90
2023-11-07T15:50:28.684Z,11.90
2023-11-07T15:53:07.479Z,11.80
2023-11-07T15:55:41.314Z,11.70
2023-11-07T15:58:08.769Z,11.60
2023-11-07T16:00:36.244Z,11.50
2023-11-07T16:03:05.245Z,11.40
2023-11-07T16:05:37.146Z,11.40
2023-11-07T16:08:06.363Z,11.30
2023-11-07T16:10:34.577Z,11.30
2023-11-07T16:13:03.712Z,11.20
2023-11-07T16:15:31.022Z,11.20
2023-11-07T16:17:58.174Z,11.10
2023-11-07T16:20:26.212Z,11.10
2023-11-07T16:22:53.083Z,11.00
2023-11-07T16:25:20.177Z,11.00
2023-11-07T16:27:47.561Z,10.90
2023-11-07T16:30:16.914Z,10.90
2023-11-07T16:32:44.401Z,10.80
2023-11-07T16:35:12.060Z,10.80
2023-11-07T16:37:39.356Z,10.70
2023-11-07T16:40:12.859Z,10.70
2023-11-07T16:42:41.663Z,10.70
2023-11-07T16:45:09.701Z,10.60
2023-11-07T16:47:37.648Z,10.60
2023-11-07T16:50:04.797Z,10.50
2023-11-07T16:52:31.591Z,10.50
2023-11-07T16:54:58.567Z,10.50
2023-11-07T16:57:25.712Z,10.50
2023-11-07T16:59:53.065Z,10.40
2023-11-07T17:02:20.316Z,10.40
2023-11-07T17:04:47.699Z,10.40
2023-11-07T17:07:15.064Z,10.40
2023-11-07T17:09:42.506Z,10.30
2023-11-07T17:12:09.593Z,10.30
2023-11-07T17:14:38.589Z,10.30
2023-11-07T17:17:06.468Z,10.30
2023-11-07T17:19:33.836Z,10.30
2023-11-07T17:22:01.182Z,10.20
2023-11-07T17:24:28.946Z,10.20
2023-11-07T17:26:56.172Z,10.20
2023-11-07T17:29:23.580Z,10.20
2023-11-07T17:31:50.538Z,10.10
2023-11-07T17:34:17.850Z,10.10
2023-11-07T17:36:47.420Z,10.10
2023-11-07T17:39:16.749Z,10.10
2023-11-07T17:41:45.487Z,10.00
2023-11-07T17:44:12.925Z,10.00
2023-11-07T17:46:49.113Z,10.00
2023-11-07T17:49:23.070Z,10.00
2023-11-07T17:51:50.735Z,10.00
2023-11-07T17:54:23.184Z,9.90
2023-11-07T17:56:49.996Z,9.90
2023-11-07T17:59:16.785Z,9.90
2023-11-07T18:01:43.855Z,9.90
2023-11-07T18:04:11.498Z,9.90
2023-11-07T18:06:41.297Z,10.00
2023-11-07T18:09:13.970Z,10.00
2023-11-07T18:11:42.043Z,9.90
2023-11-07T18:14:12.530Z,9.90
2023-11-07T18:16:39.820Z,9.90
2023-11-07T18:19:06.872Z,10.00
2023-11-07T18:21:35.633Z,10.00
2023-11-07T18:24:04.629Z,10.00
2023-11-07T18:26:31.463Z,9.90
2023-11-07T18:28:58.640Z,9.80
2023-11-07T18:31:28.363Z,9.70
2023-11-07T18:33:55.987Z,9.60
2023-11-07T18:36:22.943Z,9.50
2023-11-07T18:38:49.883Z,9.50
2023-11-07T18:41:20.748Z,9.40
2023-11-07T18:43:47.694Z,9.40
2023-11-07T18:46:15.913Z,9.30
2023-11-07T18:48:43.361Z,9.30
2023-11-07T18:51:13.353Z,9.30
2023-11-07T18:53:46.022Z,9.30
2023-11-07T18:56:14.451Z,9.20
2023-11-07T18:58:41.369Z,9.20
2023-11-07T19:01:11.232Z,9.20
2023-11-07T19:03:38.168Z,9.20
2023-11-07T19:06:06.147Z,9.10
2023-11-07T19:08:33.477Z,9.10
2023-11-07T19:11:01.055Z,9.00
2023-11-07T19:13:28.215Z,9.00
2023-11-07T19:15:55.814Z,8.90
2023-11-07T19:18:24.134Z,8.90
2023-11-07T19:20:52.360Z,8.90
2023-11-07T19:23:20.710Z,8.90
2023-11-07T19:25:49.141Z,8.90
2023-11-07T19:28:16.052Z,8.80
2023-11-07T19:33:28.316Z,8.80
2023-11-07T19:35:55.515Z,8.90
2023-11-07T19:38:24.325Z,8.90
2023-11-07T19:40:51.158Z,8.90
2023-11-07T19:43:21.594Z,8.90
2023-11-07T19:45:53.470Z,8.90
2023-11-07T19:48:23.466Z,9.00
2023-11-07T19:50:50.866Z,8.90
2023-11-07T19:53:17.667Z,9.00
2023-11-07T19:55:44.527Z,9.00
2023-11-07T19:58:11.568Z,9.00
2023-11-07T20:00:38.581Z,9.00
2023-11-07T20:03:06.458Z,8.90
2023-11-07T20:05:33.725Z,8.90
2023-11-07T20:08:00.835Z,8.90
2023-11-07T20:10:28.916Z,8.90
2023-11-07T20:12:55.665Z,8.80
2023-11-07T20:15:22.570Z,8.80
2023-11-07T20:17:49.531Z,8.70
2023-11-07T20:20:16.633Z,8.70
2023-11-07T20:22:45.078Z,8.70
2023-11-07T20:25:12.088Z,8.60
2023-11-07T20:27:40.063Z,8.60
2023-11-07T20:30:17.007Z,8.60
2023-11-07T20:32:43.986Z,8.60
2023-11-07T20:35:10.966Z,8.60
2023-11-07T20:37:37.697Z,8.60
2023-11-07T20:40:06.840Z,8.70
2023-11-07T20:42:33.782Z,8.70
2023-11-07T20:45:08.187Z,8.70
2023-11-07T20:47:39.855Z,8.80
2023-11-07T20:50:09.708Z,8.80
2023-11-07T20:52:36.827Z,8.80
2023-11-07T20:55:03.954Z,8.90
2023-11-07T20:57:34.309Z,8.90
2023-11-07T21:00:01.610Z,8.90
2023-11-07T21:02:36.332Z,8.90
2023-11-07T21:05:03.349Z,8.90
2023-11-07T21:07:30.333Z,8.80
2023-11-07T21:09:58.278Z,8.80
2023-11-07T21:12:25.499Z,8.80
2023-11-07T21:17:38.535Z,8.70
2023-11-07T21:20:11.796Z,8.70
2023-11-07T21:22:41.690Z,8.70
2023-11-07T21:25:09.451Z,8.60
2023-11-07T21:27:36.739Z,8.60
2023-11-07T21:30:06.735Z,8.60
2023-11-07T21:32:35.183Z,8.60
2023-11-07T21:35:10.323Z,8.60
2023-11-07T21:37:38.519Z,8.60
2023-11-07T21:40:09.120Z,8.60
2023-11-07T21:42:39.446Z,8.60
2023-11-07T21:45:09.317Z,8.60
2023-11-07T21:47:36.389Z,8.60
2023-11-07T21:50:06.731Z,8.70
2023-11-07T21:52:33.861Z,8.70
2023-11-07T21:55:00.812Z,8.70
2023-11-07T21:57:27.841Z,8.80
2023-11-07T21:59:54.609Z,8.80
2023-11-07T22:02:21.692Z,8.80
2023-11-07T22:04:48.543Z,8.90
2023-11-07T22:07:15.370Z,8.80
2023-11-07T22:09:42.272Z,8.80
2023-11-07T22:12:09.129Z,8.80
2023-11-07T22:14:35.937Z,8.80
2023-11-07T22:17:02.868Z,8.70
2023-11-07T22:19:30.621Z,8.70
2023-11-07T22:21:58.082Z,8.70
2023-11-07T22:24:25.104Z,8.60
2023-11-07T22:26:54.205Z,8.60
2023-11-07T22:29:21.085Z,8.60
2023-11-07T22:31:48.386Z,8.50
2023-11-07T22:34:15.283Z,8.50
2023-11-07T22:36:42.192Z,8.50
2023-11-07T22:39:10.787Z,8.40
2023-11-07T22:41:37.700Z,8.40
2023-11-07T22:44:04.767Z,8.40
2023-11-07T22:46:31.591Z,8.40
2023-11-07T22:48:59.171Z,8.30
2023-11-07T22:51:26.254Z,8.30
2023-11-07T22:53:53.095Z,8.30
2023-11-07T22:56:19.854Z,8.30
2023-11-07T22:58:46.981Z,8.30
2023-11-07T23:01:14.799Z,8.30
2023-11-07T23:03:42.352Z,8.30
2023-11-07T23:06:09.295Z,8.20
2023-11-07T23:08:36.148Z,8.30
2023-11-07T23:11:03.185Z,8.20
2023-11-07T23:13:30.719Z,8.20
2023-11-07T23:15:58.578Z,8.20
2023-11-07T23:18:25.611Z,8.20
2023-11-07T23:20:52.439Z,8.20
2023-11-07T23:23:19.749Z,8.30
2023-11-07T23:25:47.064Z,8.30
2023-11-07T23:28:14.315Z,8.30
2023-11-07T23:30:41.552Z,8.30
2023-11-07T23:33:08.635Z,8.30
2023-11-07T23:35:35.552Z,8.20
2023-11-07T23:38:02.457Z,8.20
2023-11-07T23:40:30.221Z,8.20
2023-11-07T23:42:58.665Z,8.20
2023-11-07T23:45:28.363Z,8.20
2023-11-07T23:47:55.271Z,8.20
2023-11-07T23:50:22.369Z,8.20
2023-11-07T23:52:51.611Z,8.20
2023-11-07T23:55:19.137Z,8.20
2023-11-07T23:57:48.118Z,8.20
